sensor_id;sensor_type;location;lat;lon;timestamp;temperature;humidity
15217;DHT22;7711;46.634;14.318;2022-10-17T03:57:28;8.30;99.90
15217;DHT22;7711;46.634;14.318;2022-10-17T04:00:17;8.30;99.90
15217;DHT22;7711;46.634;14.318;2022-10-17T04:03:16;8.30;99.90
15217;DHT22;7711;46.634;14.318;2022-10-17T04:06:32;8.40;99.90
15217;DHT22;7711;46.634;14.318;2022-10-17T04:12:29;8.30;99.90
15217;DHT22;7711;46.634;14.318;2022-10-17T04:15:33;8.30;99.90
15217;DHT22;7711;46.634;14.318;2022-10-17T04:18:18;8.30;99.90
15217;DHT22;7711;46.634;14.318;2022-10-17T04:21:05;8.30;99.90
15217;DHT22;7711;46.634;14.318;2022-10-17T04:24:03;8.20;99.90
15217;DHT22;7711;46.634;14.318;2022-10-17T04:26:53;8.30;99.90
15217;DHT22;7711;46.634;14.318;2022-10-17T04:32:49;8.20;99.90
15217;DHT22;7711;46.634;14.318;2022-10-17T04:35:37;8.40;99.90
15217;DHT22;7711;46.634;14.318;2022-10-17T04:38:20;8.10;99.90
15217;DHT22;7711;46.634;14.318;2022-10-17T04:41:07;8.10;99.90
15217;DHT22;7711;46.634;14.318;2022-10-17T04:43:48;8.00;99.90
15217;DHT22;7711;46.634;14.318;2022-10-17T04:46:26;8.00;99.90
15217;DHT22;7711;46.634;14.318;2022-10-17T04:49:13;8.00;99.90
15217;DHT22;7711;46.634;14.318;2022-10-17T04:52:25;8.00;99.90
15217;DHT22;7711;46.634;14.318;2022-10-17T04:55:14;8.00;99.90
15217;DHT22;7711;46.634;14.318;2022-10-17T05:25:39;8.20;99.90
15217;DHT22;7711;46.634;14.318;2022-10-17T05:31:19;8.40;99.90
15217;DHT22;7711;46.634;14.318;2022-10-17T05:33:49;8.40;99.90
15217;DHT22;7711;46.634;14.318;2022-10-17T05:36:16;8.40;99.90
15217;DHT22;7711;46.634;14.318;2022-10-17T05:38:48;8.30;99.90
15217;DHT22;7711;46.634;14.318;2022-10-17T05:41:17;8.50;99.90
15217;DHT22;7711;46.634;14.318;2022-10-17T05:43:45;8.50;99.90
15217;DHT22;7711;46.634;14.318;2022-10-17T05:46:12;8.50;99.90
15217;DHT22;7711;46.634;14.318;2022-10-17T05:48:52;8.60;99.90
15217;DHT22;7711;46.634;14.318;2022-10-17T10:48:49;15.10;99.90
15217;DHT22;7711;46.634;14.318;2022-10-17T10:51:31;15.20;99.90
15217;DHT22;7711;46.634;14.318;2022-10-17T10:54:09;15.20;99.90
15217;DHT22;7711;46.634;14.318;2022-10-17T10:56:41;15.30;99.90
15217;DHT22;7711;46.634;14.318;2022-10-17T10:59:12;15.30;99.90
15217;DHT22;7711;46.634;14.318;2022-10-17T11:01:55;15.40;99.90
15217;DHT22;7711;46.634;14.318;2022-10-17T11:04:33;15.50;99.90
15217;DHT22;7711;46.634;14.318;2022-10-17T11:07:04;15.60;99.90
15217;DHT22;7711;46.634;14.318;2022-10-17T11:09:44;15.60;99.90
15217;DHT22;7711;46.634;14.318;2022-10-17T11:12:20;15.90;99.90
15217;DHT22;7711;46.634;14.318;2022-10-17T11:14:52;15.80;99.90
15217;DHT22;7711;46.634;14.318;2022-10-17T11:17:29;16.00;99.90
15217;DHT22;7711;46.634;14.318;2022-10-17T11:20:09;16.30;99.90
15217;DHT22;7711;46.634;14.318;2022-10-17T11:22:41;16.40;99.90
15217;DHT22;7711;46.634;14.318;2022-10-17T11:25:28;16.40;99.90
15217;DHT22;7711;46.634;14.318;2022-10-17T11:28:01;16.20;99.90
15217;DHT22;7711;46.634;14.318;2022-10-17T11:30:41;16.50;99.90
15217;DHT22;7711;46.634;14.318;2022-10-17T11:33:16;16.40;99.90
15217;DHT22;7711;46.634;14.318;2022-10-17T11:35:49;16.60;99.90
15217;DHT22;7711;46.634;14.318;2022-10-17T11:38:24;16.90;99.90
15217;DHT22;7711;46.634;14.318;2022-10-17T11:40:58;17.20;99.90
15217;DHT22;7711;46.634;14.318;2022-10-17T11:43:29;17.30;99.90
15217;DHT22;7711;46.634;14.318;2022-10-17T11:46:01;17.30;99.90
15217;DHT22;7711;46.634;14.318;2022-10-17T11:48:36;17.40;99.90
15217;DHT22;7711;46.634;14.318;2022-10-17T11:51:09;17.60;99.90
15217;DHT22;7711;46.634;14.318;2022-10-17T11:53:49;17.70;99.90
15217;DHT22;7711;46.634;14.318;2022-10-17T11:56:24;17.90;99.90
15217;DHT22;7711;46.634;14.318;2022-10-17T11:58:58;17.80;99.90
15217;DHT22;7711;46.634;14.318;2022-10-17T12:01:37;17.90;99.90
15217;DHT22;7711;46.634;14.318;2022-10-17T12:04:20;18.20;99.90
15217;DHT22;7711;46.634;14.318;2022-10-17T12:07:01;18.10;99.90
15217;DHT22;7711;46.634;14.318;2022-10-17T12:09:37;18.10;99.90
15217;DHT22;7711;46.634;14.318;2022-10-17T12:12:05;18.40;99.90
15217;DHT22;7711;46.634;14.318;2022-10-17T12:14:38;18.50;99.90
15217;DHT22;7711;46.634;14.318;2022-10-17T12:17:24;18.70;99.90
15217;DHT22;7711;46.634;14.318;2022-10-17T12:19:51;18.90;99.90
15217;DHT22;7711;46.634;14.318;2022-10-17T12:22:25;18.60;99.90
15217;DHT22;7711;46.634;14.318;2022-10-17T12:24:58;18.50;99.90
15217;DHT22;7711;46.634;14.318;2022-10-17T12:27:44;18.80;99.90
15217;DHT22;7711;46.634;14.318;2022-10-17T12:30:23;19.10;99.90
15217;DHT22;7711;46.634;14.318;2022-10-17T14:39:35;26.90;99.90
15217;DHT22;7711;46.634;14.318;2022-10-17T14:42:40;26.30;99.90
15217;DHT22;7711;46.634;14.318;2022-10-17T14:45:23;25.90;99.90
15217;DHT22;7711;46.634;14.318;2022-10-17T14:48:12;25.50;99.90
15217;DHT22;7711;46.634;14.318;2022-10-17T14:51:08;24.90;99.90
15217;DHT22;7711;46.634;14.318;2022-10-17T14:54:00;25.50;99.90
15217;DHT22;7711;46.634;14.318;2022-10-17T14:57:07;25.70;99.90
15217;DHT22;7711;46.634;14.318;2022-10-17T14:59:38;25.90;99.90
15217;DHT22;7711;46.634;14.318;2022-10-17T15:02:14;25.50;99.90
15217;DHT22;7711;46.634;14.318;2022-10-17T15:05:00;25.50;99.90
15217;DHT22;7711;46.634;14.318;2022-10-17T15:07:31;25.70;99.90
15217;DHT22;7711;46.634;14.318;2022-10-17T15:10:31;25.70;99.90
15217;DHT22;7711;46.634;14.318;2022-10-17T15:13:16;25.20;99.90
15217;DHT22;7711;46.634;14.318;2022-10-17T15:15:46;25.30;99.90
15217;DHT22;7711;46.634;14.318;2022-10-17T15:18:20;25.50;99.90
15217;DHT22;7711;46.634;14.318;2022-10-17T15:20:48;25.70;99.90
15217;DHT22;7711;46.634;14.318;2022-10-17T15:23:16;24.50;99.90
15217;DHT22;7711;46.634;14.318;2022-10-17T15:25:45;23.60;99.90
15217;DHT22;7711;46.634;14.318;2022-10-17T15:28:12;22.50;99.90
15217;DHT22;7711;46.634;14.318;2022-10-17T15:30:44;21.90;99.90
15217;DHT22;7711;46.634;14.318;2022-10-17T15:33:12;21.30;99.90
15217;DHT22;7711;46.634;14.318;2022-10-17T15:35:45;20.70;99.90
15217;DHT22;7711;46.634;14.318;2022-10-17T15:38:17;20.20;99.90
15217;DHT22;7711;46.634;14.318;2022-10-17T15:40:51;19.90;99.90
15217;DHT22;7711;46.634;14.318;2022-10-17T15:43:18;19.60;99.90
15217;DHT22;7711;46.634;14.318;2022-10-17T15:45:55;19.30;99.90
15217;DHT22;7711;46.634;14.318;2022-10-17T15:48:28;19.10;99.90
15217;DHT22;7711;46.634;14.318;2022-10-17T15:50:56;18.80;99.90
15217;DHT22;7711;46.634;14.318;2022-10-17T15:53:29;18.60;99.90
15217;DHT22;7711;46.634;14.318;2022-10-17T15:55:57;18.50;99.90
15217;DHT22;7711;46.634;14.318;2022-10-17T15:58:31;18.30;99.90
15217;DHT22;7711;46.634;14.318;2022-10-17T16:01:02;18.00;99.90
15217;DHT22;7711;46.634;14.318;2022-10-17T16:03:31;17.90;99.90
15217;DHT22;7711;46.634;14.318;2022-10-17T16:06:00;17.60;99.90
15217;DHT22;7711;46.634;14.318;2022-10-17T16:08:27;17.40;99.90
15217;DHT22;7711;46.634;14.318;2022-10-17T16:10:55;17.10;99.90
15217;DHT22;7711;46.634;14.318;2022-10-17T16:13:25;16.90;99.90
15217;DHT22;7711;46.634;14.318;2022-10-17T16:15:52;16.70;99.90
15217;DHT22;7711;46.634;14.318;2022-10-17T16:18:20;16.30;1.00
15217;DHT22;7711;46.634;14.318;2022-10-17T16:20:48;16.40;1.00
15217;DHT22;7711;46.634;14.318;2022-10-17T16:23:15;16.30;1.00
15217;DHT22;7711;46.634;14.318;2022-10-17T16:25:44;16.10;99.90
15217;DHT22;7711;46.634;14.318;2022-10-17T16:28:11;16.00;1.00
15217;DHT22;7711;46.634;14.318;2022-10-17T16:30:41;15.80;99.90
15217;DHT22;7711;46.634;14.318;2022-10-17T16:36:48;15.70;1.00
15217;DHT22;7711;46.634;14.318;2022-10-17T16:39:37;15.00;1.00
15217;DHT22;7711;46.634;14.318;2022-10-17T16:42:22;15.20;99.90
15217;DHT22;7711;46.634;14.318;2022-10-17T16:44:55;15.20;99.90
15217;DHT22;7711;46.634;14.318;2022-10-17T16:47:34;15.10;99.90
15217;DHT22;7711;46.634;14.318;2022-10-17T16:50:11;14.90;99.90
15217;DHT22;7711;46.634;14.318;2022-10-17T16:52:58;14.70;99.90
15217;DHT22;7711;46.634;14.318;2022-10-17T18:21:31;12.40;99.90
15217;DHT22;7711;46.634;14.318;2022-10-17T18:24:15;12.30;99.90
15217;DHT22;7711;46.634;14.318;2022-10-17T18:26:57;12.30;99.90
15217;DHT22;7711;46.634;14.318;2022-10-17T18:29:25;12.30;99.90
15217;DHT22;7711;46.634;14.318;2022-10-17T18:31:54;12.20;99.90
15217;DHT22;7711;46.634;14.318;2022-10-17T18:50:16;12.20;99.90
15217;DHT22;7711;46.634;14.318;2022-10-17T18:52:56;12.20;99.90
15217;DHT22;7711;46.634;14.318;2022-10-17T18:55:45;12.10;99.90
15217;DHT22;7711;46.634;14.318;2022-10-17T18:58:18;12.70;99.90
15217;DHT22;7711;46.634;14.318;2022-10-17T19:00:47;12.00;99.90
15217;DHT22;7711;46.634;14.318;2022-10-17T19:37:55;11.10;99.90
15217;DHT22;7711;46.634;14.318;2022-10-17T19:40:29;11.10;99.90
15217;DHT22;7711;46.634;14.318;2022-10-17T19:43:27;11.10;99.90
15217;DHT22;7711;46.634;14.318;2022-10-17T19:46:20;11.10;99.90
15217;DHT22;7711;46.634;14.318;2022-10-17T19:49:10;11.10;99.90
15217;DHT22;7711;46.634;14.318;2022-10-17T19:51:53;11.10;99.90
15217;DHT22;7711;46.634;14.318;2022-10-17T19:54:21;11.10;99.90
15217;DHT22;7711;46.634;14.318;2022-10-17T19:56:49;11.10;99.90
15217;DHT22;7711;46.634;14.318;2022-10-17T19:59:18;11.00;99.90
15217;DHT22;7711;46.634;14.318;2022-10-17T20:01:48;11.00;99.90
15217;DHT22;7711;46.634;14.318;2022-10-17T20:04:16;11.00;99.90
15217;DHT22;7711;46.634;14.318;2022-10-17T20:06:43;10.90;99.90
15217;DHT22;7711;46.634;14.318;2022-10-17T20:09:11;10.80;99.90
15217;DHT22;7711;46.634;14.318;2022-10-17T20:11:40;10.70;99.90
15217;DHT22;7711;46.634;14.318;2022-10-17T20:14:07;10.80;99.90
15217;DHT22;7711;46.634;14.318;2022-10-17T20:16:35;10.80;99.90
15217;DHT22;7711;46.634;14.318;2022-10-17T20:25:30;10.80;99.90
15217;DHT22;7711;46.634;14.318;2022-10-17T20:34:37;10.70;99.90
15217;DHT22;7711;46.634;14.318;2022-10-17T20:37:13;10.70;99.90
15217;DHT22;7711;46.634;14.318;2022-10-17T20:39:54;10.90;99.90
15217;DHT22;7711;46.634;14.318;2022-10-17T20:42:24;10.80;99.90
15217;DHT22;7711;46.634;14.318;2022-10-17T20:44:51;10.90;99.90
15217;DHT22;7711;46.634;14.318;2022-10-17T20:47:21;10.90;99.90
15217;DHT22;7711;46.634;14.318;2022-10-17T20:49:50;10.90;99.90
15217;DHT22;7711;46.634;14.318;2022-10-17T20:56:01;10.80;99.90
15217;DHT22;7711;46.634;14.318;2022-10-17T20:58:37;10.80;99.90
15217;DHT22;7711;46.634;14.318;2022-10-17T21:01:05;10.80;99.90
15217;DHT22;7711;46.634;14.318;2022-10-17T21:03:35;10.70;99.90
15217;DHT22;7711;46.634;14.318;2022-10-17T21:06:09;10.80;99.90
15217;DHT22;7711;46.634;14.318;2022-10-17T21:08:43;10.70;99.90
15217;DHT22;7711;46.634;14.318;2022-10-17T21:11:31;10.70;99.90
15217;DHT22;7711;46.634;14.318;2022-10-17T21:27:34;10.60;99.90
15217;DHT22;7711;46.634;14.318;2022-10-17T21:30:03;10.50;99.90
15217;DHT22;7711;46.634;14.318;2022-10-17T21:32:31;10.40;99.90
15217;DHT22;7711;46.634;14.318;2022-10-17T21:34:58;10.40;99.90
15217;DHT22;7711;46.634;14.318;2022-10-17T21:37:25;10.40;99.90
15217;DHT22;7711;46.634;14.318;2022-10-17T21:39:52;10.40;99.90
15217;DHT22;7711;46.634;14.318;2022-10-17T21:49:42;9.70;99.90
15217;DHT22;7711;46.634;14.318;2022-10-17T21:52:09;10.10;99.90
15217;DHT22;7711;46.634;14.318;2022-10-17T21:54:39;10.10;99.90
15217;DHT22;7711;46.634;14.318;2022-10-17T21:57:06;10.00;99.90
15217;DHT22;7711;46.634;14.318;2022-10-17T21:59:35;9.90;99.90
15217;DHT22;7711;46.634;14.318;2022-10-17T22:02:02;9.90;99.90
15217;DHT22;7711;46.634;14.318;2022-10-17T22:04:30;9.10;99.90
15217;DHT22;7711;46.634;14.318;2022-10-17T22:07:01;9.90;99.90
15217;DHT22;7711;46.634;14.318;2022-10-17T22:09:29;10.10;99.90
15217;DHT22;7711;46.634;14.318;2022-10-17T22:11:56;10.10;99.90
15217;DHT22;7711;46.634;14.318;2022-10-17T22:14:25;10.00;99.90
15217;DHT22;7711;46.634;14.318;2022-10-17T22:16:52;9.90;99.90
15217;DHT22;7711;46.634;14.318;2022-10-17T22:19:24;9.90;99.90
15217;DHT22;7711;46.634;14.318;2022-10-17T22:21:53;9.90;99.90
15217;DHT22;7711;46.634;14.318;2022-10-17T22:24:22;9.90;99.90
15217;DHT22;7711;46.634;14.318;2022-10-17T22:26:49;9.90;99.90
